sensor_id;sensor_type;location;lat;lon;timestamp;temperature;humidity
15003;DHT22;7597;53.590;10.020;2022-12-29T00:01:34;8.20;1.00
15003;DHT22;7597;53.590;10.020;2022-12-29T00:04:01;8.20;1.00
15003;DHT22;7597;53.590;10.020;2022-12-29T00:06:27;8.20;1.00
15003;DHT22;7597;53.590;10.020;2022-12-29T00:08:54;8.30;1.00
15003;DHT22;7597;53.590;10.020;2022-12-29T00:11:22;8.30;1.00
15003;DHT22;7597;53.590;10.020;2022-12-29T00:13:48;8.30;1.00
15003;DHT22;7597;53.590;10.020;2022-12-29T00:16:20;8.30;1.00
15003;DHT22;7597;53.590;10.020;2022-12-29T00:18:47;8.30;1.00
15003;DHT22;7597;53.590;10.020;2022-12-29T00:21:14;8.30;1.00
15003;DHT22;7597;53.590;10.020;2022-12-29T00:23:46;8.30;1.00
15003;DHT22;7597;53.590;10.020;2022-12-29T00:26:18;8.30;1.00
15003;DHT22;7597;53.590;10.020;2022-12-29T00:28:50;8.30;1.00
15003;DHT22;7597;53.590;10.020;2022-12-29T00:31:23;8.40;1.00
15003;DHT22;7597;53.590;10.020;2022-12-29T00:33:55;8.50;1.00
15003;DHT22;7597;53.590;10.020;2022-12-29T00:36:32;8.40;1.00
15003;DHT22;7597;53.590;10.020;2022-12-29T00:39:02;8.50;1.00
15003;DHT22;7597;53.590;10.020;2022-12-29T00:41:33;8.50;1.00
15003;DHT22;7597;53.590;10.020;2022-12-29T00:44:06;8.50;1.00
15003;DHT22;7597;53.590;10.020;2022-12-29T00:46:33;8.60;1.00
15003;DHT22;7597;53.590;10.020;2022-12-29T00:49:00;8.60;1.00
15003;DHT22;7597;53.590;10.020;2022-12-29T00:51:32;8.60;99.90
15003;DHT22;7597;53.590;10.020;2022-12-29T00:53:59;8.60;99.90
15003;DHT22;7597;53.590;10.020;2022-12-29T00:56:25;8.60;99.90
15003;DHT22;7597;53.590;10.020;2022-12-29T00:58:52;8.60;99.90
15003;DHT22;7597;53.590;10.020;2022-12-29T01:01:18;8.70;99.90
15003;DHT22;7597;53.590;10.020;2022-12-29T01:03:45;8.70;99.90
15003;DHT22;7597;53.590;10.020;2022-12-29T01:06:12;8.70;99.90
15003;DHT22;7597;53.590;10.020;2022-12-29T01:08:38;8.80;99.90
15003;DHT22;7597;53.590;10.020;2022-12-29T01:11:07;8.80;99.90
15003;DHT22;7597;53.590;10.020;2022-12-29T01:13:33;8.80;99.90
15003;DHT22;7597;53.590;10.020;2022-12-29T01:15:59;8.90;99.90
15003;DHT22;7597;53.590;10.020;2022-12-29T01:18:26;8.90;99.90
15003;DHT22;7597;53.590;10.020;2022-12-29T01:20:59;8.90;99.90
15003;DHT22;7597;53.590;10.020;2022-12-29T01:23:25;8.90;99.90
15003;DHT22;7597;53.590;10.020;2022-12-29T01:25:52;8.90;99.90
15003;DHT22;7597;53.590;10.020;2022-12-29T01:28:19;8.90;99.90
15003;DHT22;7597;53.590;10.020;2022-12-29T01:30:46;8.90;99.90
15003;DHT22;7597;53.590;10.020;2022-12-29T01:33:12;8.90;99.90
15003;DHT22;7597;53.590;10.020;2022-12-29T01:35:39;9.00;99.90
15003;DHT22;7597;53.590;10.020;2022-12-29T01:38:06;8.90;99.90
15003;DHT22;7597;53.590;10.020;2022-12-29T01:40:32;8.90;99.90
15003;DHT22;7597;53.590;10.020;2022-12-29T01:42:59;9.00;99.90
15003;DHT22;7597;53.590;10.020;2022-12-29T01:45:26;8.90;99.90
15003;DHT22;7597;53.590;10.020;2022-12-29T01:47:55;8.90;99.90
15003;DHT22;7597;53.590;10.020;2022-12-29T01:50:26;8.90;99.90
15003;DHT22;7597;53.590;10.020;2022-12-29T01:52:51;9.20;99.90
15003;DHT22;7597;53.590;10.020;2022-12-29T01:55:17;8.90;99.90
15003;DHT22;7597;53.590;10.020;2022-12-29T01:57:44;8.90;99.90
15003;DHT22;7597;53.590;10.020;2022-12-29T02:00:11;8.90;99.90
15003;DHT22;7597;53.590;10.020;2022-12-29T02:02:37;8.90;1.00
15003;DHT22;7597;53.590;10.020;2022-12-29T02:07:47;8.90;1.00
15003;DHT22;7597;53.590;10.020;2022-12-29T02:10:13;8.90;1.00
15003;DHT22;7597;53.590;10.020;2022-12-29T02:12:40;9.00;1.00
15003;DHT22;7597;53.590;10.020;2022-12-29T02:15:07;9.00;1.00
15003;DHT22;7597;53.590;10.020;2022-12-29T02:23:15;9.00;1.00
15003;DHT22;7597;53.590;10.020;2022-12-29T02:31:17;9.00;1.00
15003;DHT22;7597;53.590;10.020;2022-12-29T02:34:07;9.00;1.00
15003;DHT22;7597;53.590;10.020;2022-12-29T02:42:20;8.90;1.00
15003;DHT22;7597;53.590;10.020;2022-12-29T02:44:52;8.90;1.00
15003;DHT22;7597;53.590;10.020;2022-12-29T02:47:26;8.80;1.00
15003;DHT22;7597;53.590;10.020;2022-12-29T02:50:13;8.80;1.00
15003;DHT22;7597;53.590;10.020;2022-12-29T02:52:38;8.90;1.00
15003;DHT22;7597;53.590;10.020;2022-12-29T02:55:04;8.90;1.00
15003;DHT22;7597;53.590;10.020;2022-12-29T02:57:32;8.90;1.00
15003;DHT22;7597;53.590;10.020;2022-12-29T03:00:05;8.90;1.00
15003;DHT22;7597;53.590;10.020;2022-12-29T03:02:51;8.90;1.00
15003;DHT22;7597;53.590;10.020;2022-12-29T03:05:23;8.90;1.00
15003;DHT22;7597;53.590;10.020;2022-12-29T03:07:51;8.90;1.00
15003;DHT22;7597;53.590;10.020;2022-12-29T03:13:39;8.90;1.00
15003;DHT22;7597;53.590;10.020;2022-12-29T03:16:24;9.00;1.00
15003;DHT22;7597;53.590;10.020;2022-12-29T03:18:58;9.00;99.90
15003;DHT22;7597;53.590;10.020;2022-12-29T03:21:41;9.00;99.90
15003;DHT22;7597;53.590;10.020;2022-12-29T03:24:11;9.00;99.90
15003;DHT22;7597;53.590;10.020;2022-12-29T03:26:38;9.00;99.90
15003;DHT22;7597;53.590;10.020;2022-12-29T03:29:05;9.00;99.90
15003;DHT22;7597;53.590;10.020;2022-12-29T03:31:32;9.10;99.90
15003;DHT22;7597;53.590;10.020;2022-12-29T03:33:59;9.00;99.90
15003;DHT22;7597;53.590;10.020;2022-12-29T03:36:30;9.10;99.90
15003;DHT22;7597;53.590;10.020;2022-12-29T03:39:08;9.00;99.90
15003;DHT22;7597;53.590;10.020;2022-12-29T03:41:32;9.10;99.90
15003;DHT22;7597;53.590;10.020;2022-12-29T03:43:59;9.10;99.90
15003;DHT22;7597;53.590;10.020;2022-12-29T03:46:25;9.10;99.90
15003;DHT22;7597;53.590;10.020;2022-12-29T03:48:52;9.10;99.90
15003;DHT22;7597;53.590;10.020;2022-12-29T03:51:19;9.20;99.90
15003;DHT22;7597;53.590;10.020;2022-12-29T03:53:45;9.20;99.90
15003;DHT22;7597;53.590;10.020;2022-12-29T03:56:12;9.20;99.90
15003;DHT22;7597;53.590;10.020;2022-12-29T03:58:39;9.30;99.90
15003;DHT22;7597;53.590;10.020;2022-12-29T04:01:05;9.30;99.90
15003;DHT22;7597;53.590;10.020;2022-12-29T04:03:32;9.40;99.90
15003;DHT22;7597;53.590;10.020;2022-12-29T04:05:58;9.40;99.90
15003;DHT22;7597;53.590;10.020;2022-12-29T04:08:25;9.40;99.90
15003;DHT22;7597;53.590;10.020;2022-12-29T04:10:52;9.40;99.90
15003;DHT22;7597;53.590;10.020;2022-12-29T04:13:18;9.40;99.90
15003;DHT22;7597;53.590;10.020;2022-12-29T04:15:45;9.40;99.90
15003;DHT22;7597;53.590;10.020;2022-12-29T04:18:12;9.40;99.90
15003;DHT22;7597;53.590;10.020;2022-12-29T04:20:39;9.50;99.90
15003;DHT22;7597;53.590;10.020;2022-12-29T04:23:11;9.50;99.90
15003;DHT22;7597;53.590;10.020;2022-12-29T04:25:38;9.50;99.90
15003;DHT22;7597;53.590;10.020;2022-12-29T04:28:05;9.50;99.90
15003;DHT22;7597;53.590;10.020;2022-12-29T04:30:32;9.50;99.90
15003;DHT22;7597;53.590;10.020;2022-12-29T04:32:59;9.50;99.90
15003;DHT22;7597;53.590;10.020;2022-12-29T04:35:25;9.50;99.90
15003;DHT22;7597;53.590;10.020;2022-12-29T04:37:53;9.50;99.90
15003;DHT22;7597;53.590;10.020;2022-12-29T04:40:19;9.50;99.90
15003;DHT22;7597;53.590;10.020;2022-12-29T04:42:46;9.50;99.90
15003;DHT22;7597;53.590;10.020;2022-12-29T04:45:13;9.50;99.90
15003;DHT22;7597;53.590;10.020;2022-12-29T04:47:43;9.50;99.90
15003;DHT22;7597;53.590;10.020;2022-12-29T04:50:09;9.50;99.90
15003;DHT22;7597;53.590;10.020;2022-12-29T04:52:36;9.50;99.90
15003;DHT22;7597;53.590;10.020;2022-12-29T04:55:03;9.50;99.90
15003;DHT22;7597;53.590;10.020;2022-12-29T04:57:30;9.50;99.90
15003;DHT22;7597;53.590;10.020;2022-12-29T04:59:57;9.50;99.90
15003;DHT22;7597;53.590;10.020;2022-12-29T05:02:23;9.50;99.90
15003;DHT22;7597;53.590;10.020;2022-12-29T05:04:50;9.60;99.90
15003;DHT22;7597;53.590;10.020;2022-12-29T05:07:17;9.50;99.90
15003;DHT22;7597;53.590;10.020;2022-12-29T05:09:43;9.50;99.90
15003;DHT22;7597;53.590;10.020;2022-12-29T05:12:10;9.50;99.90
15003;DHT22;7597;53.590;10.020;2022-12-29T05:14:37;9.50;99.90
15003;DHT22;7597;53.590;10.020;2022-12-29T05:17:03;9.50;99.90
15003;DHT22;7597;53.590;10.020;2022-12-29T05:19:30;9.40;99.90
15003;DHT22;7597;53.590;10.020;2022-12-29T05:21:57;9.40;99.90
15003;DHT22;7597;53.590;10.020;2022-12-29T05:24:23;9.40;1.00
15003;DHT22;7597;53.590;10.020;2022-12-29T05:26:50;9.40;1.00
15003;DHT22;7597;53.590;10.020;2022-12-29T05:29:17;9.40;1.00
15003;DHT22;7597;53.590;10.020;2022-12-29T05:31:43;9.50;1.00
15003;DHT22;7597;53.590;10.020;2022-12-29T05:34:11;9.60;1.00
15003;DHT22;7597;53.590;10.020;2022-12-29T05:36:37;9.60;1.00
15003;DHT22;7597;53.590;10.020;2022-12-29T05:39:04;9.70;1.00
15003;DHT22;7597;53.590;10.020;2022-12-29T05:41:31;9.70;1.00
15003;DHT22;7597;53.590;10.020;2022-12-29T05:43:58;9.80;1.00
15003;DHT22;7597;53.590;10.020;2022-12-29T05:46:24;9.90;1.00
15003;DHT22;7597;53.590;10.020;2022-12-29T05:48:51;9.90;1.00
15003;DHT22;7597;53.590;10.020;2022-12-29T05:51:17;9.90;99.90
15003;DHT22;7597;53.590;10.020;2022-12-29T05:53:44;10.00;99.90
15003;DHT22;7597;53.590;10.020;2022-12-29T05:56:11;10.10;99.90
15003;DHT22;7597;53.590;10.020;2022-12-29T05:58:38;10.10;99.90
15003;DHT22;7597;53.590;10.020;2022-12-29T06:01:05;10.10;99.90
15003;DHT22;7597;53.590;10.020;2022-12-29T06:03:32;10.10;99.90
15003;DHT22;7597;53.590;10.020;2022-12-29T06:05:59;10.10;99.90
15003;DHT22;7597;53.590;10.020;2022-12-29T06:08:26;10.20;99.90
15003;DHT22;7597;53.590;10.020;2022-12-29T06:10:52;10.20;99.90
15003;DHT22;7597;53.590;10.020;2022-12-29T06:13:19;10.20;99.90
15003;DHT22;7597;53.590;10.020;2022-12-29T06:15:47;10.30;99.90
15003;DHT22;7597;53.590;10.020;2022-12-29T06:18:18;10.30;99.90
15003;DHT22;7597;53.590;10.020;2022-12-29T06:20:44;10.30;99.90
15003;DHT22;7597;53.590;10.020;2022-12-29T06:23:11;10.30;99.90
15003;DHT22;7597;53.590;10.020;2022-12-29T06:25:39;10.30;99.90
15003;DHT22;7597;53.590;10.020;2022-12-29T06:28:05;10.30;99.90
15003;DHT22;7597;53.590;10.020;2022-12-29T06:30:32;10.30;99.90
15003;DHT22;7597;53.590;10.020;2022-12-29T06:32:58;10.20;99.90
15003;DHT22;7597;53.590;10.020;2022-12-29T06:35:25;10.10;99.90
15003;DHT22;7597;53.590;10.020;2022-12-29T06:37:52;10.10;99.90
15003;DHT22;7597;53.590;10.020;2022-12-29T06:40:18;10.10;99.90
15003;DHT22;7597;53.590;10.020;2022-12-29T06:42:45;10.10;99.90
15003;DHT22;7597;53.590;10.020;2022-12-29T06:45:12;10.10;99.90
15003;DHT22;7597;53.590;10.020;2022-12-29T06:47:38;10.10;99.90
15003;DHT22;7597;53.590;10.020;2022-12-29T06:50:05;10.00;99.90
15003;DHT22;7597;53.590;10.020;2022-12-29T06:52:32;10.00;99.90
15003;DHT22;7597;53.590;10.020;2022-12-29T06:54:59;9.90;99.90
15003;DHT22;7597;53.590;10.020;2022-12-29T06:57:25;9.90;99.90
15003;DHT22;7597;53.590;10.020;2022-12-29T06:59:52;9.90;99.90
15003;DHT22;7597;53.590;10.020;2022-12-29T07:02:19;9.90;99.90
15003;DHT22;7597;53.590;10.020;2022-12-29T07:04:45;9.90;99.90
15003;DHT22;7597;53.590;10.020;2022-12-29T07:07:12;9.80;99.90
15003;DHT22;7597;53.590;10.020;2022-12-29T07:09:38;9.80;99.90
15003;DHT22;7597;53.590;10.020;2022-12-29T07:12:05;9.90;99.90
15003;DHT22;7597;53.590;10.020;2022-12-29T07:14:32;9.90;99.90
15003;DHT22;7597;53.590;10.020;2022-12-29T07:16:58;9.90;99.90
15003;DHT22;7597;53.590;10.020;2022-12-29T07:19:25;9.90;99.90
15003;DHT22;7597;53.590;10.020;2022-12-29T07:21:53;9.90;99.90
15003;DHT22;7597;53.590;10.020;2022-12-29T07:24:18;9.80;99.90
15003;DHT22;7597;53.590;10.020;2022-12-29T07:26:45;9.80;99.90
15003;DHT22;7597;53.590;10.020;2022-12-29T07:29:12;10.10;99.90
15003;DHT22;7597;53.590;10.020;2022-12-29T07:31:38;9.70;99.90
15003;DHT22;7597;53.590;10.020;2022-12-29T07:34:05;9.80;99.90
15003;DHT22;7597;53.590;10.020;2022-12-29T07:36:32;9.70;99.90
15003;DHT22;7597;53.590;10.020;2022-12-29T07:38:58;9.80;99.90
15003;DHT22;7597;53.590;10.020;2022-12-29T07:41:25;9.70;99.90
15003;DHT22;7597;53.590;10.020;2022-12-29T07:43:52;9.80;99.90
15003;DHT22;7597;53.590;10.020;2022-12-29T07:46:19;9.90;99.90
15003;DHT22;7597;53.590;10.020;2022-12-29T07:48:46;9.90;99.90
15003;DHT22;7597;53.590;10.020;2022-12-29T07:51:12;9.90;99.90
15003;DHT22;7597;53.590;10.020;2022-12-29T07:53:39;10.10;99.90
15003;DHT22;7597;53.590;10.020;2022-12-29T07:56:06;10.10;99.90
15003;DHT22;7597;53.590;10.020;2022-12-29T07:58:32;10.10;99.90
15003;DHT22;7597;53.590;10.020;2022-12-29T08:00:59;10.10;99.90
15003;DHT22;7597;53.590;10.020;2022-12-29T08:03:26;10.10;99.90
15003;DHT22;7597;53.590;10.020;2022-12-29T08:05:52;10.10;99.90
15003;DHT22;7597;53.590;10.020;2022-12-29T08:08:19;10.00;99.90
15003;DHT22;7597;53.590;10.020;2022-12-29T08:10:46;10.00;99.90
15003;DHT22;7597;53.590;10.020;2022-12-29T08:13:12;10.00;99.90
15003;DHT22;7597;53.590;10.020;2022-12-29T08:15:39;9.90;99.90
15003;DHT22;7597;53.590;10.020;2022-12-29T08:18:06;9.90;99.90
15003;DHT22;7597;53.590;10.020;2022-12-29T08:20:32;9.90;99.90
15003;DHT22;7597;53.590;10.020;2022-12-29T08:22:59;9.90;99.90
15003;DHT22;7597;53.590;10.020;2022-12-29T08:25:25;9.90;99.90
15003;DHT22;7597;53.590;10.020;2022-12-29T08:27:52;9.90;99.90
15003;DHT22;7597;53.590;10.020;2022-12-29T08:30:19;10.00;99.90
15003;DHT22;7597;53.590;10.020;2022-12-29T08:32:45;10.10;99.90
15003;DHT22;7597;53.590;10.020;2022-12-29T08:35:12;10.10;99.90
15003;DHT22;7597;53.590;10.020;2022-12-29T08:37:39;10.10;99.90
15003;DHT22;7597;53.590;10.020;2022-12-29T08:40:06;10.30;99.90
15003;DHT22;7597;53.590;10.020;2022-12-29T08:42:33;10.30;99.90
15003;DHT22;7597;53.590;10.020;2022-12-29T08:45:00;10.30;99.90
15003;DHT22;7597;53.590;10.020;2022-12-29T08:47:26;10.30;99.90
15003;DHT22;7597;53.590;10.020;2022-12-29T08:49:53;10.40;99.90
15003;DHT22;7597;53.590;10.020;2022-12-29T08:52:19;10.40;99.90
15003;DHT22;7597;53.590;10.020;2022-12-29T08:54:46;10.40;99.90
15003;DHT22;7597;53.590;10.020;2022-12-29T08:57:13;10.30;99.90
15003;DHT22;7597;53.590;10.020;2022-12-29T08:59:39;10.30;99.90
15003;DHT22;7597;53.590;10.020;2022-12-29T09:02:09;10.30;99.90
15003;DHT22;7597;53.590;10.020;2022-12-29T09:04:33;10.70;99.90
15003;DHT22;7597;53.590;10.020;2022-12-29T09:07:00;12.00;78.60
15003;DHT22;7597;53.590;10.020;2022-12-29T09:09:27;12.00;78.80
15003;DHT22;7597;53.590;10.020;2022-12-29T09:11:53;12.40;10.00
15003;DHT22;7597;53.590;10.020;2022-12-29T09:14:20;12.60;1.00
15003;DHT22;7597;53.590;10.020;2022-12-29T09:16:47;13.20;1.00
15003;DHT22;7597;53.590;10.020;2022-12-29T09:19:19;13.50;1.00
15003;DHT22;7597;53.590;10.020;2022-12-29T09:21:46;13.20;1.00
15003;DHT22;7597;53.590;10.020;2022-12-29T09:24:12;13.20;1.00
15003;DHT22;7597;53.590;10.020;2022-12-29T09:26:39;13.20;1.00
15003;DHT22;7597;53.590;10.020;2022-12-29T09:29:06;13.50;1.00
15003;DHT22;7597;53.590;10.020;2022-12-29T09:31:32;13.80;1.00
15003;DHT22;7597;53.590;10.020;2022-12-29T09:33:59;14.00;1.00
15003;DHT22;7597;53.590;10.020;2022-12-29T09:36:25;14.00;1.00
15003;DHT22;7597;53.590;10.020;2022-12-29T09:38:53;14.00;1.00
15003;DHT22;7597;53.590;10.020;2022-12-29T09:41:24;13.80;1.00
15003;DHT22;7597;53.590;10.020;2022-12-29T09:44:08;13.50;1.00
15003;DHT22;7597;53.590;10.020;2022-12-29T09:46:35;13.00;1.00
15003;DHT22;7597;53.590;10.020;2022-12-29T09:49:21;12.20;1.00
15003;DHT22;7597;53.590;10.020;2022-12-29T09:51:46;12.00;1.00
15003;DHT22;7597;53.590;10.020;2022-12-29T09:54:36;11.80;1.00
15003;DHT22;7597;53.590;10.020;2022-12-29T09:57:02;11.20;1.00
15003;DHT22;7597;53.590;10.020;2022-12-29T09:59:41;11.20;1.00
15003;DHT22;7597;53.590;10.020;2022-12-29T10:02:46;11.10;1.00
15003;DHT22;7597;53.590;10.020;2022-12-29T10:04:56;11.20;1.00
15003;DHT22;7597;53.590;10.020;2022-12-29T10:12:53;11.40;1.00
15003;DHT22;7597;53.590;10.020;2022-12-29T10:15:37;11.30;1.00
15003;DHT22;7597;53.590;10.020;2022-12-29T10:18:32;11.10;1.00
15003;DHT22;7597;53.590;10.020;2022-12-29T10:21:04;11.00;1.00
15003;DHT22;7597;53.590;10.020;2022-12-29T10:23:29;11.00;1.00
15003;DHT22;7597;53.590;10.020;2022-12-29T10:25:55;11.10;1.00
15003;DHT22;7597;53.590;10.020;2022-12-29T10:28:22;11.30;1.00
15003;DHT22;7597;53.590;10.020;2022-12-29T10:30:48;11.20;1.00
15003;DHT22;7597;53.590;10.020;2022-12-29T10:33:17;11.30;1.00
15003;DHT22;7597;53.590;10.020;2022-12-29T10:35:43;11.30;1.00
15003;DHT22;7597;53.590;10.020;2022-12-29T10:38:28;11.30;1.00
15003;DHT22;7597;53.590;10.020;2022-12-29T10:41:13;11.30;1.00
15003;DHT22;7597;53.590;10.020;2022-12-29T10:43:48;11.70;1.00
15003;DHT22;7597;53.590;10.020;2022-12-29T10:46:19;12.50;1.00
15003;DHT22;7597;53.590;10.020;2022-12-29T10:48:45;12.50;1.00
15003;DHT22;7597;53.590;10.020;2022-12-29T10:51:15;12.60;1.00
15003;DHT22;7597;53.590;10.020;2022-12-29T10:53:41;12.50;1.00
15003;DHT22;7597;53.590;10.020;2022-12-29T10:56:09;12.30;1.00
15003;DHT22;7597;53.590;10.020;2022-12-29T10:58:33;12.40;1.00
15003;DHT22;7597;53.590;10.020;2022-12-29T11:00:59;12.40;1.00
15003;DHT22;7597;53.590;10.020;2022-12-29T11:06:27;13.30;1.00
15003;DHT22;7597;53.590;10.020;2022-12-29T11:08:55;13.40;1.00
15003;DHT22;7597;53.590;10.020;2022-12-29T11:11:24;13.30;1.00
15003;DHT22;7597;53.590;10.020;2022-12-29T11:13:50;12.80;1.00
15003;DHT22;7597;53.590;10.020;2022-12-29T11:16:29;12.20;1.00
15003;DHT22;7597;53.590;10.020;2022-12-29T11:18:55;11.90;1.00
15003;DHT22;7597;53.590;10.020;2022-12-29T11:21:38;11.80;1.00
15003;DHT22;7597;53.590;10.020;2022-12-29T11:24:17;12.00;1.00
15003;DHT22;7597;53.590;10.020;2022-12-29T11:26:32;12.80;1.00
15003;DHT22;7597;53.590;10.020;2022-12-29T11:29:11;13.00;1.00
15003;DHT22;7597;53.590;10.020;2022-12-29T11:31:39;13.00;1.00
15003;DHT22;7597;53.590;10.020;2022-12-29T11:33:59;12.60;1.00
15003;DHT22;7597;53.590;10.020;2022-12-29T11:36:25;12.10;1.00
15003;DHT22;7597;53.590;10.020;2022-12-29T11:38:52;11.70;1.00
15003;DHT22;7597;53.590;10.020;2022-12-29T11:41:21;11.50;1.00
15003;DHT22;7597;53.590;10.020;2022-12-29T11:43:46;11.50;1.00
15003;DHT22;7597;53.590;10.020;2022-12-29T11:46:16;11.50;1.00
15003;DHT22;7597;53.590;10.020;2022-12-29T11:48:42;11.40;1.00
15003;DHT22;7597;53.590;10.020;2022-12-29T11:51:09;11.30;1.00
15003;DHT22;7597;53.590;10.020;2022-12-29T11:53:38;11.30;1.00
15003;DHT22;7597;53.590;10.020;2022-12-29T11:56:05;11.20;1.00
15003;DHT22;7597;53.590;10.020;2022-12-29T11:58:33;11.10;1.00
15003;DHT22;7597;53.590;10.020;2022-12-29T12:01:04;11.00;1.00
15003;DHT22;7597;53.590;10.020;2022-12-29T12:03:29;11.00;1.00
15003;DHT22;7597;53.590;10.020;2022-12-29T12:05:56;11.30;1.00
15003;DHT22;7597;53.590;10.020;2022-12-29T12:08:35;11.60;1.00
15003;DHT22;7597;53.590;10.020;2022-12-29T12:11:14;11.40;1.00
15003;DHT22;7597;53.590;10.020;2022-12-29T12:13:47;11.20;1.00
15003;DHT22;7597;53.590;10.020;2022-12-29T12:16:15;11.00;1.00
15003;DHT22;7597;53.590;10.020;2022-12-29T12:18:44;10.90;1.00
15003;DHT22;7597;53.590;10.020;2022-12-29T12:24:04;10.70;1.00
15003;DHT22;7597;53.590;10.020;2022-12-29T12:26:30;10.60;1.00
15003;DHT22;7597;53.590;10.020;2022-12-29T12:28:57;10.60;1.00
15003;DHT22;7597;53.590;10.020;2022-12-29T12:34:01;10.60;1.00
15003;DHT22;7597;53.590;10.020;2022-12-29T12:36:46;10.60;1.00
15003;DHT22;7597;53.590;10.020;2022-12-29T12:39:19;10.50;1.00
15003;DHT22;7597;53.590;10.020;2022-12-29T12:41:51;10.50;1.00
15003;DHT22;7597;53.590;10.020;2022-12-29T12:44:24;10.50;1.00
15003;DHT22;7597;53.590;10.020;2022-12-29T12:47:01;10.40;1.00
15003;DHT22;7597;53.590;10.020;2022-12-29T12:49:30;10.40;1.00
15003;DHT22;7597;53.590;10.020;2022-12-29T12:57:21;10.30;1.00
15003;DHT22;7597;53.590;10.020;2022-12-29T13:00:07;10.30;1.00
15003;DHT22;7597;53.590;10.020;2022-12-29T13:02:54;10.30;1.00
15003;DHT22;7597;53.590;10.020;2022-12-29T13:05:23;10.30;1.00
15003;DHT22;7597;53.590;10.020;2022-12-29T13:16:31;10.40;1.00
15003;DHT22;7597;53.590;10.020;2022-12-29T13:19:04;10.50;1.00
15003;DHT22;7597;53.590;10.020;2022-12-29T13:21:48;10.50;1.00
15003;DHT22;7597;53.590;10.020;2022-12-29T13:24:15;10.40;1.00
15003;DHT22;7597;53.590;10.020;2022-12-29T13:26:40;10.30;1.00
15003;DHT22;7597;53.590;10.020;2022-12-29T13:29:14;10.20;1.00
15003;DHT22;7597;53.590;10.020;2022-12-29T13:31:46;10.00;1.00
15003;DHT22;7597;53.590;10.020;2022-12-29T13:34:25;9.80;1.00
15003;DHT22;7597;53.590;10.020;2022-12-29T13:36:51;9.60;1.00
15003;DHT22;7597;53.590;10.020;2022-12-29T13:39:17;9.50;35.60
15003;DHT22;7597;53.590;10.020;2022-12-29T13:41:44;9.40;79.20
15003;DHT22;7597;53.590;10.020;2022-12-29T13:44:12;9.40;92.90
15003;DHT22;7597;53.590;10.020;2022-12-29T13:46:39;9.30;94.00
15003;DHT22;7597;53.590;10.020;2022-12-29T13:49:07;9.30;98.60
15003;DHT22;7597;53.590;10.020;2022-12-29T13:51:32;9.30;99.90
15003;DHT22;7597;53.590;10.020;2022-12-29T13:56:39;9.20;99.90
15003;DHT22;7597;53.590;10.020;2022-12-29T13:59:42;9.20;99.90
15003;DHT22;7597;53.590;10.020;2022-12-29T14:01:55;9.20;99.90
15003;DHT22;7597;53.590;10.020;2022-12-29T14:04:22;9.20;99.90
15003;DHT22;7597;53.590;10.020;2022-12-29T14:06:47;9.20;99.90
15003;DHT22;7597;53.590;10.020;2022-12-29T14:09:34;9.10;99.90
15003;DHT22;7597;53.590;10.020;2022-12-29T14:11:55;9.10;99.90
15003;DHT22;7597;53.590;10.020;2022-12-29T14:14:25;8.10;99.90
15003;DHT22;7597;53.590;10.020;2022-12-29T14:16:51;8.10;99.90
15003;DHT22;7597;53.590;10.020;2022-12-29T14:19:20;7.90;99.90
15003;DHT22;7597;53.590;10.020;2022-12-29T14:21:51;7.70;99.90
15003;DHT22;7597;53.590;10.020;2022-12-29T14:24:40;7.60;99.90
15003;DHT22;7597;53.590;10.020;2022-12-29T14:27:42;7.50;99.90
15003;DHT22;7597;53.590;10.020;2022-12-29T14:29:52;7.40;99.90
15003;DHT22;7597;53.590;10.020;2022-12-29T14:32:35;7.40;99.90
15003;DHT22;7597;53.590;10.020;2022-12-29T14:37:50;7.40;99.90
15003;DHT22;7597;53.590;10.020;2022-12-29T14:40:23;7.40;99.90
15003;DHT22;7597;53.590;10.020;2022-12-29T14:42:49;7.40;99.90
15003;DHT22;7597;53.590;10.020;2022-12-29T14:45:30;7.40;99.90
15003;DHT22;7597;53.590;10.020;2022-12-29T14:47:57;7.50;99.90
15003;DHT22;7597;53.590;10.020;2022-12-29T14:50:25;7.50;99.90
15003;DHT22;7597;53.590;10.020;2022-12-29T14:52:54;7.50;99.90
15003;DHT22;7597;53.590;10.020;2022-12-29T14:55:29;7.50;99.90
15003;DHT22;7597;53.590;10.020;2022-12-29T14:57:58;7.50;99.90
15003;DHT22;7597;53.590;10.020;2022-12-29T15:00:25;7.40;99.90
15003;DHT22;7597;53.590;10.020;2022-12-29T15:03:23;7.40;99.90
15003;DHT22;7597;53.590;10.020;2022-12-29T15:05:36;7.40;99.90
15003;DHT22;7597;53.590;10.020;2022-12-29T15:08:02;7.40;99.90
15003;DHT22;7597;53.590;10.020;2022-12-29T15:10:32;7.40;99.90
15003;DHT22;7597;53.590;10.020;2022-12-29T15:12:55;7.40;99.90
15003;DHT22;7597;53.590;10.020;2022-12-29T15:15:23;7.40;99.90
15003;DHT22;7597;53.590;10.020;2022-12-29T15:17:48;7.40;99.90
15003;DHT22;7597;53.590;10.020;2022-12-29T15:20:21;7.40;99.90
15003;DHT22;7597;53.590;10.020;2022-12-29T15:22:44;7.40;99.90
15003;DHT22;7597;53.590;10.020;2022-12-29T15:25:14;7.50;99.90
15003;DHT22;7597;53.590;10.020;2022-12-29T15:27:39;7.50;99.90
15003;DHT22;7597;53.590;10.020;2022-12-29T15:30:11;7.50;99.90
15003;DHT22;7597;53.590;10.020;2022-12-29T15:32:40;7.50;99.90
15003;DHT22;7597;53.590;10.020;2022-12-29T15:35:37;7.50;99.90
15003;DHT22;7597;53.590;10.020;2022-12-29T15:37:48;7.40;99.90
15003;DHT22;7597;53.590;10.020;2022-12-29T15:40:24;7.40;99.90
15003;DHT22;7597;53.590;10.020;2022-12-29T15:45:27;7.50;99.90
15003;DHT22;7597;53.590;10.020;2022-12-29T15:47:53;7.50;99.90
15003;DHT22;7597;53.590;10.020;2022-12-29T15:50:30;7.50;99.90
15003;DHT22;7597;53.590;10.020;2022-12-29T15:52:57;7.40;99.90
15003;DHT22;7597;53.590;10.020;2022-12-29T15:55:28;7.50;99.90
15003;DHT22;7597;53.590;10.020;2022-12-29T15:57:55;7.50;99.90
15003;DHT22;7597;53.590;10.020;2022-12-29T16:00:23;7.50;99.90
15003;DHT22;7597;53.590;10.020;2022-12-29T16:02:49;7.40;99.90
15003;DHT22;7597;53.590;10.020;2022-12-29T16:05:16;7.40;99.90
15003;DHT22;7597;53.590;10.020;2022-12-29T16:07:58;7.40;99.90
15003;DHT22;7597;53.590;10.020;2022-12-29T16:10:42;7.30;99.90
15003;DHT22;7597;53.590;10.020;2022-12-29T16:13:19;7.30;99.90
15003;DHT22;7597;53.590;10.020;2022-12-29T16:15:45;7.20;99.90
15003;DHT22;7597;53.590;10.020;2022-12-29T16:18:14;7.20;99.90
15003;DHT22;7597;53.590;10.020;2022-12-29T16:20:39;7.20;99.90
15003;DHT22;7597;53.590;10.020;2022-12-29T16:23:05;7.30;99.90
15003;DHT22;7597;53.590;10.020;2022-12-29T16:25:32;7.20;99.90
15003;DHT22;7597;53.590;10.020;2022-12-29T16:27:58;7.20;99.90
15003;DHT22;7597;53.590;10.020;2022-12-29T16:30:28;7.20;99.90
15003;DHT22;7597;53.590;10.020;2022-12-29T16:32:56;7.20;99.90
15003;DHT22;7597;53.590;10.020;2022-12-29T16:35:21;7.20;99.90
15003;DHT22;7597;53.590;10.020;2022-12-29T16:37:47;7.20;99.90
15003;DHT22;7597;53.590;10.020;2022-12-29T16:40:24;7.20;99.90
15003;DHT22;7597;53.590;10.020;2022-12-29T16:42:53;7.20;99.90
15003;DHT22;7597;53.590;10.020;2022-12-29T16:48:19;7.30;99.90
15003;DHT22;7597;53.590;10.020;2022-12-29T16:50:46;7.30;99.90
15003;DHT22;7597;53.590;10.020;2022-12-29T16:53:35;7.30;99.90
15003;DHT22;7597;53.590;10.020;2022-12-29T16:56:03;7.20;99.90
15003;DHT22;7597;53.590;10.020;2022-12-29T16:58:28;7.20;99.90